sensor_id;sensor_type;location;lat;lon;timestamp;P1;durP1;ratioP1;P2;durP2;ratioP2
78141;SDS011;67393;52.620;13.482;2024-03-08T00:01:30;34.65;;;14.27;;
78141;SDS011;67393;52.620;13.482;2024-03-08T00:03:57;35.22;;;13.60;;
78141;SDS011;67393;52.620;13.482;2024-03-08T00:06:23;35.15;;;14.13;;
78141;SDS011;67393;52.620;13.482;2024-03-08T00:08:49;34.85;;;14.93;;
78141;SDS011;67393;52.620;13.482;2024-03-08T00:11:16;41.58;;;15.23;;
78141;SDS011;67393;52.620;13.482;2024-03-08T00:13:42;35.35;;;14.73;;
78141;SDS011;67393;52.620;13.482;2024-03-08T00:16:08;42.63;;;14.18;;
78141;SDS011;67393;52.620;13.482;2024-03-08T00:18:34;31.50;;;14.20;;
78141;SDS011;67393;52.620;13.482;2024-03-08T00:21:01;31.42;;;12.93;;
78141;SDS011;67393;52.620;13.482;2024-03-08T00:23:27;35.60;;;14.50;;
78141;SDS011;67393;52.620;13.482;2024-03-08T00:25:53;34.45;;;14.30;;
78141;SDS011;67393;52.620;13.482;2024-03-08T00:28:20;33.88;;;12.95;;
78141;SDS011;67393;52.620;13.482;2024-03-08T00:30:46;31.90;;;15.07;;
78141;SDS011;67393;52.620;13.482;2024-03-08T00:33:12;37.83;;;14.57;;
78141;SDS011;67393;52.620;13.482;2024-03-08T00:35:38;32.97;;;12.85;;
78141;SDS011;67393;52.620;13.482;2024-03-08T00:38:05;31.88;;;13.80;;
78141;SDS011;67393;52.620;13.482;2024-03-08T00:40:31;33.35;;;14.38;;
78141;SDS011;67393;52.620;13.482;2024-03-08T00:42:57;37.42;;;15.18;;
78141;SDS011;67393;52.620;13.482;2024-03-08T00:45:23;35.75;;;13.45;;
78141;SDS011;67393;52.620;13.482;2024-03-08T00:47:50;35.08;;;13.40;;
78141;SDS011;67393;52.620;13.482;2024-03-08T00:50:16;34.30;;;14.32;;
78141;SDS011;67393;52.620;13.482;2024-03-08T00:52:42;31.23;;;14.57;;
78141;SDS011;67393;52.620;13.482;2024-03-08T00:55:09;33.53;;;14.05;;
78141;SDS011;67393;52.620;13.482;2024-03-08T00:57:35;29.83;;;14.65;;
78141;SDS011;67393;52.620;13.482;2024-03-08T01:00:03;34.45;;;14.95;;
78141;SDS011;67393;52.620;13.482;2024-03-08T01:12:14;32.20;;;12.57;;
78141;SDS011;67393;52.620;13.482;2024-03-08T01:14:40;35.67;;;12.43;;
78141;SDS011;67393;52.620;13.482;2024-03-08T01:17:06;31.52;;;13.13;;
78141;SDS011;67393;52.620;13.482;2024-03-08T01:19:33;31.58;;;12.60;;
78141;SDS011;67393;52.620;13.482;2024-03-08T01:21:59;33.92;;;14.35;;
78141;SDS011;67393;52.620;13.482;2024-03-08T01:24:25;33.97;;;15.35;;
78141;SDS011;67393;52.620;13.482;2024-03-08T01:26:52;35.40;;;14.15;;
78141;SDS011;67393;52.620;13.482;2024-03-08T01:29:18;44.35;;;15.50;;
78141;SDS011;67393;52.620;13.482;2024-03-08T01:31:44;33.15;;;14.63;;
78141;SDS011;67393;52.620;13.482;2024-03-08T01:34:11;39.42;;;14.48;;
78141;SDS011;67393;52.620;13.482;2024-03-08T01:36:37;37.50;;;13.43;;
78141;SDS011;67393;52.620;13.482;2024-03-08T01:39:03;40.58;;;16.60;;
78141;SDS011;67393;52.620;13.482;2024-03-08T01:41:29;38.17;;;15.55;;
78141;SDS011;67393;52.620;13.482;2024-03-08T01:43:56;33.10;;;15.65;;
78141;SDS011;67393;52.620;13.482;2024-03-08T01:46:22;45.55;;;15.13;;
78141;SDS011;67393;52.620;13.482;2024-03-08T01:48:49;40.80;;;14.55;;
78141;SDS011;67393;52.620;13.482;2024-03-08T01:51:15;34.75;;;14.73;;
78141;SDS011;67393;52.620;13.482;2024-03-08T01:53:42;37.53;;;13.38;;
78141;SDS011;67393;52.620;13.482;2024-03-08T01:56:10;39.42;;;13.40;;
78141;SDS011;67393;52.620;13.482;2024-03-08T01:58:36;34.83;;;14.30;;
78141;SDS011;67393;52.620;13.482;2024-03-08T02:01:02;34.13;;;13.52;;
78141;SDS011;67393;52.620;13.482;2024-03-08T02:03:29;34.28;;;13.05;;
78141;SDS011;67393;52.620;13.482;2024-03-08T02:05:55;35.45;;;14.38;;
78141;SDS011;67393;52.620;13.482;2024-03-08T02:08:21;33.28;;;14.45;;
78141;SDS011;67393;52.620;13.482;2024-03-08T02:10:48;42.40;;;15.30;;
78141;SDS011;67393;52.620;13.482;2024-03-08T02:13:14;40.42;;;14.32;;
78141;SDS011;67393;52.620;13.482;2024-03-08T02:18:39;28.95;;;13.88;;
78141;SDS011;67393;52.620;13.482;2024-03-08T02:21:05;32.70;;;13.60;;
78141;SDS011;67393;52.620;13.482;2024-03-08T02:23:33;33.53;;;13.27;;
78141;SDS011;67393;52.620;13.482;2024-03-08T02:25:59;42.85;;;16.45;;
78141;SDS011;67393;52.620;13.482;2024-03-08T02:28:25;33.72;;;12.07;;
78141;SDS011;67393;52.620;13.482;2024-03-08T02:30:52;35.47;;;13.85;;
78141;SDS011;67393;52.620;13.482;2024-03-08T02:33:18;37.30;;;14.77;;
78141;SDS011;67393;52.620;13.482;2024-03-08T02:35:45;34.30;;;14.30;;
78141;SDS011;67393;52.620;13.482;2024-03-08T02:38:13;30.88;;;12.95;;
78141;SDS011;67393;52.620;13.482;2024-03-08T02:40:39;39.38;;;13.75;;
78141;SDS011;67393;52.620;13.482;2024-03-08T02:43:05;37.58;;;14.90;;
78141;SDS011;67393;52.620;13.482;2024-03-08T02:45:32;34.67;;;13.80;;
78141;SDS011;67393;52.620;13.482;2024-03-08T02:47:58;37.55;;;15.20;;
78141;SDS011;67393;52.620;13.482;2024-03-08T02:50:24;32.08;;;13.43;;
78141;SDS011;67393;52.620;13.482;2024-03-08T02:52:50;34.80;;;14.52;;
78141;SDS011;67393;52.620;13.482;2024-03-08T02:55:17;37.95;;;14.07;;
78141;SDS011;67393;52.620;13.482;2024-03-08T02:57:43;44.67;;;13.93;;
78141;SDS011;67393;52.620;13.482;2024-03-08T03:00:10;32.17;;;13.18;;
78141;SDS011;67393;52.620;13.482;2024-03-08T03:02:36;33.05;;;14.35;;
78141;SDS011;67393;52.620;13.482;2024-03-08T03:05:03;33.88;;;14.60;;
78141;SDS011;67393;52.620;13.482;2024-03-08T03:07:29;41.83;;;15.88;;
78141;SDS011;67393;52.620;13.482;2024-03-08T03:09:56;35.65;;;15.02;;
78141;SDS011;67393;52.620;13.482;2024-03-08T03:12:22;42.60;;;14.57;;
78141;SDS011;67393;52.620;13.482;2024-03-08T03:14:48;41.03;;;16.05;;
78141;SDS011;67393;52.620;13.482;2024-03-08T03:17:14;34.90;;;13.38;;
78141;SDS011;67393;52.620;13.482;2024-03-08T03:19:41;37.42;;;13.60;;
78141;SDS011;67393;52.620;13.482;2024-03-08T03:22:07;41.05;;;14.85;;
78141;SDS011;67393;52.620;13.482;2024-03-08T03:24:33;38.67;;;13.55;;
78141;SDS011;67393;52.620;13.482;2024-03-08T03:26:59;37.65;;;14.57;;
78141;SDS011;67393;52.620;13.482;2024-03-08T03:29:26;33.20;;;14.55;;
78141;SDS011;67393;52.620;13.482;2024-03-08T03:31:52;36.90;;;15.63;;
78141;SDS011;67393;52.620;13.482;2024-03-08T03:34:18;43.08;;;14.93;;
78141;SDS011;67393;52.620;13.482;2024-03-08T03:36:45;40.45;;;14.55;;
78141;SDS011;67393;52.620;13.482;2024-03-08T03:39:11;45.65;;;16.10;;
78141;SDS011;67393;52.620;13.482;2024-03-08T03:41:37;33.58;;;14.50;;
78141;SDS011;67393;52.620;13.482;2024-03-08T03:44:04;42.25;;;15.43;;
78141;SDS011;67393;52.620;13.482;2024-03-08T03:46:30;41.50;;;14.85;;
78141;SDS011;67393;52.620;13.482;2024-03-08T03:48:56;33.60;;;14.65;;
78141;SDS011;67393;52.620;13.482;2024-03-08T03:51:22;41.63;;;15.15;;
78141;SDS011;67393;52.620;13.482;2024-03-08T03:53:49;36.33;;;14.43;;
78141;SDS011;67393;52.620;13.482;2024-03-08T03:56:15;39.58;;;15.82;;
78141;SDS011;67393;52.620;13.482;2024-03-08T03:58:41;42.20;;;16.27;;
78141;SDS011;67393;52.620;13.482;2024-03-08T04:01:08;42.75;;;15.07;;
78141;SDS011;67393;52.620;13.482;2024-03-08T04:03:34;45.35;;;16.42;;
78141;SDS011;67393;52.620;13.482;2024-03-08T04:06:00;43.53;;;15.80;;
78141;SDS011;67393;52.620;13.482;2024-03-08T04:08:26;40.22;;;16.88;;
78141;SDS011;67393;52.620;13.482;2024-03-08T04:10:53;40.08;;;17.17;;
78141;SDS011;67393;52.620;13.482;2024-03-08T04:13:19;38.28;;;15.52;;
78141;SDS011;67393;52.620;13.482;2024-03-08T04:15:45;38.03;;;14.65;;
78141;SDS011;67393;52.620;13.482;2024-03-08T04:18:15;36.47;;;14.80;;
78141;SDS011;67393;52.620;13.482;2024-03-08T04:20:42;42.60;;;15.88;;
78141;SDS011;67393;52.620;13.482;2024-03-08T04:23:08;38.15;;;16.25;;
78141;SDS011;67393;52.620;13.482;2024-03-08T04:25:34;37.60;;;15.52;;
78141;SDS011;67393;52.620;13.482;2024-03-08T04:28:00;40.17;;;18.05;;
78141;SDS011;67393;52.620;13.482;2024-03-08T04:30:27;39.67;;;15.77;;
78141;SDS011;67393;52.620;13.482;2024-03-08T04:32:53;46.38;;;17.05;;
78141;SDS011;67393;52.620;13.482;2024-03-08T04:35:20;44.67;;;15.38;;
78141;SDS011;67393;52.620;13.482;2024-03-08T04:37:46;42.92;;;16.75;;
78141;SDS011;67393;52.620;13.482;2024-03-08T04:40:12;39.35;;;14.38;;
78141;SDS011;67393;52.620;13.482;2024-03-08T04:42:39;47.45;;;15.93;;
78141;SDS011;67393;52.620;13.482;2024-03-08T04:45:05;40.60;;;15.70;;
78141;SDS011;67393;52.620;13.482;2024-03-08T04:47:32;45.17;;;15.65;;
78141;SDS011;67393;52.620;13.482;2024-03-08T04:49:58;44.65;;;15.80;;
78141;SDS011;67393;52.620;13.482;2024-03-08T04:52:24;44.72;;;16.00;;
78141;SDS011;67393;52.620;13.482;2024-03-08T04:54:51;40.10;;;14.07;;
78141;SDS011;67393;52.620;13.482;2024-03-08T04:57:17;49.10;;;17.17;;
78141;SDS011;67393;52.620;13.482;2024-03-08T04:59:44;45.78;;;16.13;;
78141;SDS011;67393;52.620;13.482;2024-03-08T05:02:10;41.78;;;16.08;;
78141;SDS011;67393;52.620;13.482;2024-03-08T05:04:36;40.10;;;15.90;;
78141;SDS011;67393;52.620;13.482;2024-03-08T05:07:03;42.72;;;16.10;;
78141;SDS011;67393;52.620;13.482;2024-03-08T05:09:29;47.92;;;17.08;;
78141;SDS011;67393;52.620;13.482;2024-03-08T05:11:55;45.85;;;15.88;;
78141;SDS011;67393;52.620;13.482;2024-03-08T05:14:22;39.58;;;15.70;;
78141;SDS011;67393;52.620;13.482;2024-03-08T05:16:48;40.17;;;16.88;;
78141;SDS011;67393;52.620;13.482;2024-03-08T05:19:15;39.67;;;15.50;;
78141;SDS011;67393;52.620;13.482;2024-03-08T05:21:48;38.45;;;14.32;;
78141;SDS011;67393;52.620;13.482;2024-03-08T05:24:15;38.83;;;13.52;;
78141;SDS011;67393;52.620;13.482;2024-03-08T05:26:42;43.08;;;15.85;;
78141;SDS011;67393;52.620;13.482;2024-03-08T05:29:08;45.90;;;14.82;;
78141;SDS011;67393;52.620;13.482;2024-03-08T05:31:50;42.90;;;15.43;;
78141;SDS011;67393;52.620;13.482;2024-03-08T05:34:17;40.25;;;17.05;;
78141;SDS011;67393;52.620;13.482;2024-03-08T05:36:43;40.72;;;16.33;;
78141;SDS011;67393;52.620;13.482;2024-03-08T05:39:10;36.40;;;15.02;;
78141;SDS011;67393;52.620;13.482;2024-03-08T05:41:36;38.45;;;14.75;;
78141;SDS011;67393;52.620;13.482;2024-03-08T05:44:03;43.55;;;15.35;;
78141;SDS011;67393;52.620;13.482;2024-03-08T05:46:29;40.00;;;15.30;;
78141;SDS011;67393;52.620;13.482;2024-03-08T05:48:55;42.63;;;14.98;;
78141;SDS011;67393;52.620;13.482;2024-03-08T05:51:25;40.40;;;16.60;;
78141;SDS011;67393;52.620;13.482;2024-03-08T05:53:51;38.70;;;15.15;;
78141;SDS011;67393;52.620;13.482;2024-03-08T05:56:17;48.00;;;15.95;;
78141;SDS011;67393;52.620;13.482;2024-03-08T05:58:44;45.78;;;16.30;;
78141;SDS011;67393;52.620;13.482;2024-03-08T06:01:10;41.63;;;16.30;;
78141;SDS011;67393;52.620;13.482;2024-03-08T06:03:36;47.10;;;16.40;;
78141;SDS011;67393;52.620;13.482;2024-03-08T06:06:02;47.17;;;16.85;;
78141;SDS011;67393;52.620;13.482;2024-03-08T06:08:29;44.42;;;15.65;;
78141;SDS011;67393;52.620;13.482;2024-03-08T06:10:55;37.13;;;15.48;;
78141;SDS011;67393;52.620;13.482;2024-03-08T06:13:22;39.35;;;16.60;;
78141;SDS011;67393;52.620;13.482;2024-03-08T06:15:48;62.33;;;20.02;;
78141;SDS011;67393;52.620;13.482;2024-03-08T06:18:14;44.22;;;17.15;;
78141;SDS011;67393;52.620;13.482;2024-03-08T06:20:40;41.60;;;16.92;;
78141;SDS011;67393;52.620;13.482;2024-03-08T06:23:07;44.72;;;16.85;;
78141;SDS011;67393;52.620;13.482;2024-03-08T06:25:33;39.85;;;18.55;;
78141;SDS011;67393;52.620;13.482;2024-03-08T06:27:59;42.60;;;18.13;;
78141;SDS011;67393;52.620;13.482;2024-03-08T06:30:25;49.28;;;17.55;;
78141;SDS011;67393;52.620;13.482;2024-03-08T06:32:52;49.05;;;17.30;;
78141;SDS011;67393;52.620;13.482;2024-03-08T06:35:18;45.55;;;16.40;;
78141;SDS011;67393;52.620;13.482;2024-03-08T06:37:44;47.53;;;17.00;;
78141;SDS011;67393;52.620;13.482;2024-03-08T06:40:11;52.47;;;18.23;;
78141;SDS011;67393;52.620;13.482;2024-03-08T06:42:37;45.72;;;20.20;;
78141;SDS011;67393;52.620;13.482;2024-03-08T06:45:04;54.55;;;19.48;;
78141;SDS011;67393;52.620;13.482;2024-03-08T06:47:30;55.00;;;19.50;;
78141;SDS011;67393;52.620;13.482;2024-03-08T06:49:57;54.70;;;19.95;;
78141;SDS011;67393;52.620;13.482;2024-03-08T06:52:23;57.30;;;19.85;;
78141;SDS011;67393;52.620;13.482;2024-03-08T06:54:49;51.60;;;19.25;;
78141;SDS011;67393;52.620;13.482;2024-03-08T06:57:16;44.03;;;17.08;;
78141;SDS011;67393;52.620;13.482;2024-03-08T06:59:42;48.47;;;19.40;;
78141;SDS011;67393;52.620;13.482;2024-03-08T07:02:08;42.50;;;15.98;;
78141;SDS011;67393;52.620;13.482;2024-03-08T07:04:35;47.85;;;19.30;;
78141;SDS011;67393;52.620;13.482;2024-03-08T07:07:01;47.97;;;20.23;;
78141;SDS011;67393;52.620;13.482;2024-03-08T07:09:27;42.58;;;16.33;;
78141;SDS011;67393;52.620;13.482;2024-03-08T07:11:53;52.47;;;20.52;;
78141;SDS011;67393;52.620;13.482;2024-03-08T07:14:23;50.47;;;20.27;;
78141;SDS011;67393;52.620;13.482;2024-03-08T07:16:50;46.22;;;19.48;;
78141;SDS011;67393;52.620;13.482;2024-03-08T07:19:16;48.40;;;18.83;;
78141;SDS011;67393;52.620;13.482;2024-03-08T07:21:43;47.70;;;19.50;;
78141;SDS011;67393;52.620;13.482;2024-03-08T07:24:09;46.38;;;18.48;;
78141;SDS011;67393;52.620;13.482;2024-03-08T07:26:36;40.85;;;17.20;;
78141;SDS011;67393;52.620;13.482;2024-03-08T07:29:02;44.90;;;18.60;;
78141;SDS011;67393;52.620;13.482;2024-03-08T07:31:28;41.08;;;17.67;;
78141;SDS011;67393;52.620;13.482;2024-03-08T07:33:54;41.67;;;19.25;;
78141;SDS011;67393;52.620;13.482;2024-03-08T07:36:21;40.83;;;19.20;;
78141;SDS011;67393;52.620;13.482;2024-03-08T07:38:47;48.78;;;19.23;;
78141;SDS011;67393;52.620;13.482;2024-03-08T07:41:15;43.95;;;18.95;;
78141;SDS011;67393;52.620;13.482;2024-03-08T07:43:41;48.90;;;19.77;;
78141;SDS011;67393;52.620;13.482;2024-03-08T07:46:09;43.47;;;18.88;;
78141;SDS011;67393;52.620;13.482;2024-03-08T07:51:01;38.08;;;17.52;;
78141;SDS011;67393;52.620;13.482;2024-03-08T07:53:28;43.15;;;18.30;;
78141;SDS011;67393;52.620;13.482;2024-03-08T07:55:54;37.45;;;16.30;;
78141;SDS011;67393;52.620;13.482;2024-03-08T07:58:21;43.75;;;16.75;;
78141;SDS011;67393;52.620;13.482;2024-03-08T08:00:47;36.90;;;15.55;;
78141;SDS011;67393;52.620;13.482;2024-03-08T08:03:13;41.28;;;16.98;;
78141;SDS011;67393;52.620;13.482;2024-03-08T08:05:39;41.58;;;17.38;;
78141;SDS011;67393;52.620;13.482;2024-03-08T08:08:07;48.15;;;18.30;;
78141;SDS011;67393;52.620;13.482;2024-03-08T08:10:33;40.60;;;16.25;;
78141;SDS011;67393;52.620;13.482;2024-03-08T08:13:00;43.88;;;18.33;;
78141;SDS011;67393;52.620;13.482;2024-03-08T08:15:28;42.08;;;16.48;;
78141;SDS011;67393;52.620;13.482;2024-03-08T08:17:54;33.80;;;15.07;;
78141;SDS011;67393;52.620;13.482;2024-03-08T08:20:21;36.78;;;16.35;;
78141;SDS011;67393;52.620;13.482;2024-03-08T08:22:47;41.97;;;16.33;;
78141;SDS011;67393;52.620;13.482;2024-03-08T08:25:13;37.58;;;16.15;;
78141;SDS011;67393;52.620;13.482;2024-03-08T08:27:40;31.38;;;14.85;;
78141;SDS011;67393;52.620;13.482;2024-03-08T08:30:06;33.55;;;14.85;;
78141;SDS011;67393;52.620;13.482;2024-03-08T08:32:32;31.08;;;13.95;;
78141;SDS011;67393;52.620;13.482;2024-03-08T08:34:59;36.78;;;14.27;;
78141;SDS011;67393;52.620;13.482;2024-03-08T08:37:25;37.08;;;15.63;;
78141;SDS011;67393;52.620;13.482;2024-03-08T08:39:51;34.50;;;15.35;;
78141;SDS011;67393;52.620;13.482;2024-03-08T08:42:18;37.90;;;16.00;;
78141;SDS011;67393;52.620;13.482;2024-03-08T08:44:44;35.33;;;15.10;;
78141;SDS011;67393;52.620;13.482;2024-03-08T08:47:10;27.50;;;13.30;;
78141;SDS011;67393;52.620;13.482;2024-03-08T08:49:41;35.50;;;14.93;;
78141;SDS011;67393;52.620;13.482;2024-03-08T08:52:07;27.80;;;13.93;;
78141;SDS011;67393;52.620;13.482;2024-03-08T08:54:42;24.83;;;12.85;;
78141;SDS011;67393;52.620;13.482;2024-03-08T08:57:08;38.03;;;13.40;;
78141;SDS011;67393;52.620;13.482;2024-03-08T08:59:35;34.33;;;15.95;;
78141;SDS011;67393;52.620;13.482;2024-03-08T09:02:01;31.85;;;16.10;;
78141;SDS011;67393;52.620;13.482;2024-03-08T09:04:28;30.40;;;15.30;;
78141;SDS011;67393;52.620;13.482;2024-03-08T09:06:54;28.35;;;14.75;;
78141;SDS011;67393;52.620;13.482;2024-03-08T09:09:20;32.17;;;16.13;;
78141;SDS011;67393;52.620;13.482;2024-03-08T09:11:47;31.85;;;15.13;;
78141;SDS011;67393;52.620;13.482;2024-03-08T09:14:13;30.55;;;14.43;;
78141;SDS011;67393;52.620;13.482;2024-03-08T09:16:39;35.03;;;13.57;;
78141;SDS011;67393;52.620;13.482;2024-03-08T09:19:06;28.33;;;14.65;;
78141;SDS011;67393;52.620;13.482;2024-03-08T09:21:35;34.53;;;15.88;;
78141;SDS011;67393;52.620;13.482;2024-03-08T09:24:01;29.98;;;13.90;;
78141;SDS011;67393;52.620;13.482;2024-03-08T09:26:27;28.55;;;14.73;;
78141;SDS011;67393;52.620;13.482;2024-03-08T09:28:55;31.65;;;14.30;;
78141;SDS011;67393;52.620;13.482;2024-03-08T09:31:21;32.90;;;14.30;;
78141;SDS011;67393;52.620;13.482;2024-03-08T09:33:48;27.27;;;14.20;;
78141;SDS011;67393;52.620;13.482;2024-03-08T09:36:14;35.00;;;15.25;;
78141;SDS011;67393;52.620;13.482;2024-03-08T09:38:40;28.95;;;13.82;;
78141;SDS011;67393;52.620;13.482;2024-03-08T09:41:09;32.30;;;14.45;;
78141;SDS011;67393;52.620;13.482;2024-03-08T09:43:36;30.75;;;14.80;;
78141;SDS011;67393;52.620;13.482;2024-03-08T09:46:02;34.53;;;16.90;;
78141;SDS011;67393;52.620;13.482;2024-03-08T09:48:29;25.20;;;12.13;;
78141;SDS011;67393;52.620;13.482;2024-03-08T09:50:55;26.90;;;14.18;;
78141;SDS011;67393;52.620;13.482;2024-03-08T09:53:22;29.55;;;14.48;;
78141;SDS011;67393;52.620;13.482;2024-03-08T09:55:48;28.90;;;14.38;;
78141;SDS011;67393;52.620;13.482;2024-03-08T09:58:15;31.60;;;15.95;;
78141;SDS011;67393;52.620;13.482;2024-03-08T10:00:54;33.28;;;16.42;;
78141;SDS011;67393;52.620;13.482;2024-03-08T10:03:20;27.92;;;15.10;;
78141;SDS011;67393;52.620;13.482;2024-03-08T10:05:46;35.53;;;15.48;;
78141;SDS011;67393;52.620;13.482;2024-03-08T10:08:12;31.27;;;14.93;;
78141;SDS011;67393;52.620;13.482;2024-03-08T10:10:39;40.25;;;16.58;;
78141;SDS011;67393;52.620;13.482;2024-03-08T10:13:09;32.65;;;15.15;;
78141;SDS011;67393;52.620;13.482;2024-03-08T10:15:39;29.00;;;13.60;;
78141;SDS011;67393;52.620;13.482;2024-03-08T10:18:06;37.70;;;14.13;;
78141;SDS011;67393;52.620;13.482;2024-03-08T10:20:32;26.77;;;12.77;;
78141;SDS011;67393;52.620;13.482;2024-03-08T10:22:59;23.02;;;10.93;;
78141;SDS011;67393;52.620;13.482;2024-03-08T10:25:36;27.20;;;13.63;;
78141;SDS011;67393;52.620;13.482;2024-03-08T10:28:05;29.63;;;14.07;;
78141;SDS011;67393;52.620;13.482;2024-03-08T10:30:32;27.95;;;14.13;;
78141;SDS011;67393;52.620;13.482;2024-03-08T10:32:58;31.65;;;14.02;;
78141;SDS011;67393;52.620;13.482;2024-03-08T10:35:24;27.65;;;13.88;;
78141;SDS011;67393;52.620;13.482;2024-03-08T10:37:51;25.67;;;13.15;;
78141;SDS011;67393;52.620;13.482;2024-03-08T10:40:18;25.38;;;13.63;;
78141;SDS011;67393;52.620;13.482;2024-03-08T10:42:51;28.48;;;14.95;;
78141;SDS011;67393;52.620;13.482;2024-03-08T10:45:30;27.40;;;12.95;;
78141;SDS011;67393;52.620;13.482;2024-03-08T10:50:42;28.33;;;12.90;;
78141;SDS011;67393;52.620;13.482;2024-03-08T10:53:09;24.92;;;12.18;;
78141;SDS011;67393;52.620;13.482;2024-03-08T10:55:36;26.17;;;12.85;;
78141;SDS011;67393;52.620;13.482;2024-03-08T10:58:05;28.75;;;15.20;;
78141;SDS011;67393;52.620;13.482;2024-03-08T11:00:31;24.92;;;13.00;;
78141;SDS011;67393;52.620;13.482;2024-03-08T11:02:57;29.27;;;14.63;;
78141;SDS011;67393;52.620;13.482;2024-03-08T11:05:40;29.17;;;14.68;;
78141;SDS011;67393;52.620;13.482;2024-03-08T11:10:47;26.85;;;13.10;;
78141;SDS011;67393;52.620;13.482;2024-03-08T11:13:32;28.58;;;12.98;;
78141;SDS011;67393;52.620;13.482;2024-03-08T11:15:58;23.88;;;12.68;;
78141;SDS011;67393;52.620;13.482;2024-03-08T11:18:26;23.38;;;12.20;;
78141;SDS011;67393;52.620;13.482;2024-03-08T11:20:55;26.95;;;12.48;;
78141;SDS011;67393;52.620;13.482;2024-03-08T11:23:24;26.00;;;11.82;;
78141;SDS011;67393;52.620;13.482;2024-03-08T11:25:51;28.42;;;13.70;;
78141;SDS011;67393;52.620;13.482;2024-03-08T11:28:18;25.13;;;11.20;;
78141;SDS011;67393;52.620;13.482;2024-03-08T11:33:12;27.70;;;13.85;;
78141;SDS011;67393;52.620;13.482;2024-03-08T11:35:38;24.45;;;12.70;;
78141;SDS011;67393;52.620;13.482;2024-03-08T11:38:04;30.00;;;13.38;;
78141;SDS011;67393;52.620;13.482;2024-03-08T11:40:31;27.38;;;13.52;;
78141;SDS011;67393;52.620;13.482;2024-03-08T11:42:57;23.38;;;12.68;;
78141;SDS011;67393;52.620;13.482;2024-03-08T11:45:23;21.60;;;12.63;;
78141;SDS011;67393;52.620;13.482;2024-03-08T11:47:49;27.77;;;13.15;;
78141;SDS011;67393;52.620;13.482;2024-03-08T11:50:17;33.00;;;14.70;;
78141;SDS011;67393;52.620;13.482;2024-03-08T11:52:43;27.88;;;13.60;;
78141;SDS011;67393;52.620;13.482;2024-03-08T11:55:10;20.52;;;11.98;;
78141;SDS011;67393;52.620;13.482;2024-03-08T11:57:37;20.15;;;11.48;;
78141;SDS011;67393;52.620;13.482;2024-03-08T12:00:03;21.27;;;11.10;;
78141;SDS011;67393;52.620;13.482;2024-03-08T12:02:29;25.17;;;13.25;;
78141;SDS011;67393;52.620;13.482;2024-03-08T12:04:59;24.25;;;11.77;;
78141;SDS011;67393;52.620;13.482;2024-03-08T12:07:27;23.70;;;12.18;;
78141;SDS011;67393;52.620;13.482;2024-03-08T12:12:39;23.92;;;11.63;;
78141;SDS011;67393;52.620;13.482;2024-03-08T12:15:05;27.13;;;12.95;;
78141;SDS011;67393;52.620;13.482;2024-03-08T12:17:32;22.55;;;11.65;;
78141;SDS011;67393;52.620;13.482;2024-03-08T12:20:01;27.45;;;13.38;;
78141;SDS011;67393;52.620;13.482;2024-03-08T12:22:40;24.40;;;13.73;;
78141;SDS011;67393;52.620;13.482;2024-03-08T12:25:06;29.88;;;13.60;;
78141;SDS011;67393;52.620;13.482;2024-03-08T12:27:33;25.88;;;13.60;;
78141;SDS011;67393;52.620;13.482;2024-03-08T12:29:59;27.27;;;13.25;;
78141;SDS011;67393;52.620;13.482;2024-03-08T12:32:45;24.77;;;12.90;;
78141;SDS011;67393;52.620;13.482;2024-03-08T12:35:12;25.23;;;13.00;;
78141;SDS011;67393;52.620;13.482;2024-03-08T12:37:38;23.80;;;11.68;;
78141;SDS011;67393;52.620;13.482;2024-03-08T12:40:07;26.83;;;13.13;;
78141;SDS011;67393;52.620;13.482;2024-03-08T12:42:33;24.40;;;11.73;;
78141;SDS011;67393;52.620;13.482;2024-03-08T12:44:59;27.90;;;14.70;;
78141;SDS011;67393;52.620;13.482;2024-03-08T12:47:26;24.95;;;11.82;;
78141;SDS011;67393;52.620;13.482;2024-03-08T12:49:52;22.27;;;12.25;;
78141;SDS011;67393;52.620;13.482;2024-03-08T12:52:18;23.85;;;13.30;;
78141;SDS011;67393;52.620;13.482;2024-03-08T12:54:44;26.42;;;13.10;;
78141;SDS011;67393;52.620;13.482;2024-03-08T12:57:11;21.33;;;12.70;;
78141;SDS011;67393;52.620;13.482;2024-03-08T12:59:37;20.85;;;10.13;;
78141;SDS011;67393;52.620;13.482;2024-03-08T13:02:03;27.52;;;12.25;;
78141;SDS011;67393;52.620;13.482;2024-03-08T13:04:30;25.30;;;10.63;;
78141;SDS011;67393;52.620;13.482;2024-03-08T13:06:56;22.05;;;12.25;;
78141;SDS011;67393;52.620;13.482;2024-03-08T13:09:22;26.15;;;13.40;;
78141;SDS011;67393;52.620;13.482;2024-03-08T13:11:49;19.45;;;11.40;;
78141;SDS011;67393;52.620;13.482;2024-03-08T13:14:15;22.92;;;13.18;;
78141;SDS011;67393;52.620;13.482;2024-03-08T13:16:41;28.15;;;14.45;;
78141;SDS011;67393;52.620;13.482;2024-03-08T13:19:08;26.58;;;13.52;;
78141;SDS011;67393;52.620;13.482;2024-03-08T13:21:34;24.58;;;13.75;;
78141;SDS011;67393;52.620;13.482;2024-03-08T13:24:00;25.75;;;14.65;;
78141;SDS011;67393;52.620;13.482;2024-03-08T13:26:26;23.10;;;13.07;;
78141;SDS011;67393;52.620;13.482;2024-03-08T13:28:53;23.02;;;14.00;;
78141;SDS011;67393;52.620;13.482;2024-03-08T13:31:22;24.70;;;12.55;;
78141;SDS011;67393;52.620;13.482;2024-03-08T13:33:48;29.33;;;13.25;;
78141;SDS011;67393;52.620;13.482;2024-03-08T13:36:15;26.65;;;13.60;;
78141;SDS011;67393;52.620;13.482;2024-03-08T13:38:47;25.58;;;13.80;;
78141;SDS011;67393;52.620;13.482;2024-03-08T13:41:14;24.15;;;13.68;;
78141;SDS011;67393;52.620;13.482;2024-03-08T13:43:41;27.55;;;14.10;;
78141;SDS011;67393;52.620;13.482;2024-03-08T13:46:07;25.25;;;14.15;;
78141;SDS011;67393;52.620;13.482;2024-03-08T13:48:34;26.58;;;13.05;;
78141;SDS011;67393;52.620;13.482;2024-03-08T13:51:00;29.02;;;13.25;;
78141;SDS011;67393;52.620;13.482;2024-03-08T13:53:26;24.13;;;12.70;;
78141;SDS011;67393;52.620;13.482;2024-03-08T13:55:53;20.85;;;10.88;;
78141;SDS011;67393;52.620;13.482;2024-03-08T13:58:19;27.55;;;13.77;;
78141;SDS011;67393;52.620;13.482;2024-03-08T14:00:46;25.92;;;13.45;;
78141;SDS011;67393;52.620;13.482;2024-03-08T14:03:12;26.63;;;12.10;;
78141;SDS011;67393;52.620;13.482;2024-03-08T14:05:41;23.73;;;12.35;;
78141;SDS011;67393;52.620;13.482;2024-03-08T14:08:08;23.20;;;11.82;;
78141;SDS011;67393;52.620;13.482;2024-03-08T14:10:34;20.83;;;11.57;;
78141;SDS011;67393;52.620;13.482;2024-03-08T14:13:01;20.73;;;10.73;;
78141;SDS011;67393;52.620;13.482;2024-03-08T14:15:27;26.65;;;13.48;;
78141;SDS011;67393;52.620;13.482;2024-03-08T14:17:54;23.73;;;12.23;;
78141;SDS011;67393;52.620;13.482;2024-03-08T14:20:21;21.60;;;11.40;;
78141;SDS011;67393;52.620;13.482;2024-03-08T14:22:47;25.45;;;13.20;;
78141;SDS011;67393;52.620;13.482;2024-03-08T14:25:13;22.13;;;11.38;;
78141;SDS011;67393;52.620;13.482;2024-03-08T14:27:40;19.80;;;10.57;;
78141;SDS011;67393;52.620;13.482;2024-03-08T14:30:06;25.38;;;12.60;;
78141;SDS011;67393;52.620;13.482;2024-03-08T14:32:33;27.35;;;12.45;;